createdAt,value
2019-02-12T05:15:14.341Z,-2.10
2019-02-12T05:16:48.489Z,-2.10
2019-02-12T05:18:22.298Z,-2.08
2019-02-12T05:19:56.169Z,-2.14
2019-02-12T05:21:30.049Z,-2.16
2019-02-12T05:23:04.144Z,-2.18
2019-02-12T05:24:38.386Z,-2.18
2019-02-12T05:26:12.396Z,-2.19
2019-02-12T05:27:46.394Z,-2.23
2019-02-12T05:29:21.328Z,-2.21
2019-02-12T05:30:55.230Z,-2.25
2019-02-12T05:32:29.431Z,-2.21
2019-02-12T05:34:03.236Z,-2.23
2019-02-12T05:35:37.117Z,-2.21
2019-02-12T05:37:10.993Z,-2.25
2019-02-12T05:38:45.246Z,-2.29
2019-02-12T05:40:21.094Z,-2.27
2019-02-12T05:41:53.854Z,-2.28
2019-02-12T05:43:28.879Z,-2.29
2019-02-12T05:45:02.986Z,-2.27
2019-02-12T05:46:36.890Z,-2.34
2019-02-12T05:48:11.833Z,-2.30
2019-02-12T05:49:45.676Z,-2.30
2019-02-12T05:51:19.640Z,-2.31
2019-02-12T05:52:55.217Z,-2.33
2019-02-12T05:54:29.479Z,-2.36
2019-02-12T05:56:03.402Z,-2.33
2019-02-12T05:57:37.496Z,-2.36
2019-02-12T05:59:11.506Z,-2.34
2019-02-12T06:00:46.227Z,-2.35
2019-02-12T06:02:21.363Z,-2.37
2019-02-12T06:03:56.488Z,-2.35
2019-02-12T06:05:36.228Z,-2.34
2019-02-12T06:07:11.140Z,-2.35
2019-02-12T06:08:44.957Z,-2.35
2019-02-12T06:10:18.961Z,-2.34
2019-02-12T06:11:52.841Z,-2.34
2019-02-12T06:13:26.777Z,-2.43
2019-02-12T06:15:00.667Z,-2.45
2019-02-12T06:16:34.765Z,-2.43
2019-02-12T06:18:09.600Z,-2.44
2019-02-12T06:19:43.509Z,-2.45
2019-02-12T06:21:18.630Z,-2.47
2019-02-12T06:22:52.747Z,-2.47
2019-02-12T06:24:27.049Z,-2.46
2019-02-12T06:26:01.083Z,-2.43
2019-02-12T06:27:36.193Z,-2.44
2019-02-12T06:29:10.087Z,-2.44
2019-02-12T06:30:44.144Z,-2.44
2019-02-12T06:32:18.204Z,-2.46
2019-02-12T06:33:51.986Z,-2.47
2019-02-12T06:35:25.813Z,-2.49
2019-02-12T06:37:00.809Z,-2.52
2019-02-12T06:38:35.644Z,-2.53
2019-02-12T06:40:09.726Z,-2.57
2019-02-12T06:41:43.662Z,-2.56
2019-02-12T06:43:18.691Z,-2.54
2019-02-12T06:44:52.468Z,-2.52
2019-02-12T06:46:26.306Z,-2.52
2019-02-12T06:48:00.396Z,-2.51
2019-02-12T06:49:34.195Z,-2.50
2019-02-12T06:51:08.103Z,-2.47
2019-02-12T06:52:42.102Z,-2.46
2019-02-12T06:54:16.207Z,-2.47
2019-02-12T06:55:50.110Z,-2.47
2019-02-12T06:57:25.143Z,-2.47
2019-02-12T06:58:59.850Z,-2.47
2019-02-12T07:00:33.705Z,-2.49
2019-02-12T07:02:08.795Z,-2.52
2019-02-12T07:03:50.871Z,-2.51
2019-02-12T07:05:24.999Z,-2.55
2019-02-12T07:07:11.460Z,-2.51
2019-02-12T07:09:56.668Z,-2.50
2019-02-12T07:11:50.859Z,-2.49
2019-02-12T07:14:01.421Z,-2.50
2019-02-12T07:15:42.657Z,-2.49
2019-02-12T07:19:48.651Z,-2.49
2019-02-12T07:21:34.840Z,-2.52
2019-02-12T07:24:19.810Z,-2.50
2019-02-12T07:26:11.231Z,-2.47
2019-02-12T07:28:59.345Z,-2.45
2019-02-12T07:30:50.681Z,-2.41
2019-02-12T07:32:39.324Z,-2.39
2019-02-12T07:35:13.748Z,-2.35
2019-02-12T07:38:07.090Z,-2.38
2019-02-12T07:40:00.662Z,-2.35
2019-02-12T07:42:00.057Z,-2.37
2019-02-12T07:44:55.081Z,-2.36
2019-02-12T07:46:55.305Z,-2.32
2019-02-12T07:48:40.830Z,-2.30
2019-02-12T07:50:40.893Z,-2.28
2019-02-12T07:52:29.438Z,-2.28
2019-02-12T07:54:18.902Z,-2.24
2019-02-12T07:58:09.310Z,-2.18
2019-02-12T08:00:01.434Z,-2.12
2019-02-12T08:01:53.854Z,-2.14
2019-02-12T08:03:41.790Z,-2.14
2019-02-12T08:05:30.966Z,-2.12
2019-02-12T08:07:23.710Z,-2.09
2019-02-12T08:09:44.465Z,-2.05
2019-02-12T08:11:33.571Z,-2.11
2019-02-12T08:13:33.723Z,-2.07
2019-02-12T08:15:18.742Z,-2.05
2019-02-12T08:17:21.120Z,-2.01
2019-02-12T08:20:05.680Z,-2.01
2019-02-12T08:21:49.690Z,-1.91
2019-02-12T08:23:41.208Z,-1.87
2019-02-12T08:25:26.079Z,-1.87
2019-02-12T08:27:15.266Z,-1.88
2019-02-12T08:29:02.481Z,-1.84
2019-02-12T08:32:52.278Z,-1.84
2019-02-12T08:34:45.412Z,-1.78
2019-02-12T08:36:28.739Z,-1.72
2019-02-12T08:38:30.182Z,-1.69
2019-02-12T08:40:23.747Z,-1.72
2019-02-12T08:42:17.894Z,-1.73
2019-02-12T08:44:13.649Z,-1.77
2019-02-12T08:46:14.579Z,-1.70
2019-02-12T08:49:02.322Z,-1.63
2019-02-12T08:50:58.739Z,-1.59
2019-02-12T08:52:48.605Z,-1.57
2019-02-12T08:54:37.909Z,-1.57
2019-02-12T08:58:26.855Z,-1.55
2019-02-12T09:00:10.859Z,-1.54
2019-02-12T09:02:06.278Z,-1.56
2019-02-12T09:03:53.589Z,-1.52
2019-02-12T09:06:16.652Z,-1.48
2019-02-12T09:07:59.581Z,-1.45
2019-02-12T09:09:50.665Z,-1.42
2019-02-12T09:12:16.508Z,-1.39
2019-02-12T09:14:13.832Z,-1.36
2019-02-12T09:16:00.312Z,-1.33
2019-02-12T09:18:00.483Z,-1.30
2019-02-12T09:19:43.797Z,-1.26
2019-02-12T09:22:28.670Z,-1.23
2019-02-12T09:25:26.231Z,-1.22
2019-02-12T09:27:16.308Z,-1.21
2019-02-12T09:29:04.282Z,-1.23
2019-02-12T09:30:51.226Z,-1.20
2019-02-12T09:33:04.473Z,-1.19
2019-02-12T09:35:16.991Z,-1.20
2019-02-12T09:37:03.284Z,-1.14
2019-02-12T09:40:06.369Z,-1.08
2019-02-12T09:41:52.232Z,-1.04
2019-02-12T09:43:42.237Z,-1.05
2019-02-12T09:45:27.398Z,-1.09
2019-02-12T09:47:14.816Z,-1.03
2019-02-12T09:49:12.887Z,-1.02
2019-02-12T09:50:58.154Z,-0.98
2019-02-12T09:52:46.168Z,-0.98
2019-02-12T09:54:36.667Z,-0.91
2019-02-12T09:56:26.970Z,-0.89
2019-02-12T10:00:15.812Z,-0.86
2019-02-12T10:02:57.757Z,-0.73
2019-02-12T10:05:13.494Z,-0.73
2019-02-12T10:06:59.610Z,-0.82
2019-02-12T10:08:46.753Z,-0.77
2019-02-12T10:12:35.893Z,-0.78
2019-02-12T10:14:21.940Z,-0.76
2019-02-12T10:17:02.955Z,-0.73
2019-02-12T10:19:10.128Z,-0.66
2019-02-12T10:21:14.725Z,-0.78
2019-02-12T10:23:06.568Z,-0.68
2019-02-12T10:24:56.331Z,-0.70
2019-02-12T10:26:33.332Z,-0.69
2019-02-12T10:28:15.204Z,-0.61
2019-02-12T10:30:04.386Z,-0.55
2019-02-12T10:31:45.181Z,-0.53
2019-02-12T10:33:20.183Z,-0.50
2019-02-12T10:34:56.124Z,-0.53
2019-02-12T10:36:29.920Z,-0.48
2019-02-12T10:38:03.724Z,-0.42
2019-02-12T10:39:38.628Z,-0.43
2019-02-12T10:43:00.894Z,-0.39
2019-02-12T10:44:34.798Z,-0.39
2019-02-12T10:46:09.018Z,-0.38
2019-02-12T10:47:43.327Z,-0.39
2019-02-12T10:49:18.143Z,-0.34
2019-02-12T10:50:52.037Z,-0.33
2019-02-12T10:52:26.151Z,-0.30
2019-02-12T10:54:00.341Z,-0.27
2019-02-12T10:55:34.422Z,-0.31
2019-02-12T10:57:08.086Z,-0.27
2019-02-12T10:58:42.068Z,-0.23
2019-02-12T11:00:16.993Z,-0.21
2019-02-12T11:01:50.865Z,-0.17
2019-02-12T11:03:25.207Z,-0.17
2019-02-12T11:04:59.075Z,-0.13
2019-02-12T11:06:32.993Z,-0.10
2019-02-12T11:08:06.895Z,-0.08
2019-02-12T11:09:40.875Z,-0.04
2019-02-12T11:11:14.930Z,-0.01
2019-02-12T11:12:48.826Z,0.00
2019-02-12T11:14:22.573Z,0.03
2019-02-12T11:15:56.781Z,0.05
2019-02-12T11:17:31.051Z,0.13
2019-02-12T11:19:05.742Z,0.22
2019-02-12T11:20:39.528Z,0.38
2019-02-12T11:22:12.648Z,0.45
2019-02-12T11:23:46.964Z,0.55
2019-02-12T11:25:21.865Z,0.67
2019-02-12T11:26:54.763Z,0.84
2019-02-12T11:28:28.871Z,0.99
2019-02-12T11:30:02.876Z,1.08
2019-02-12T11:31:36.967Z,1.16
2019-02-12T11:33:11.142Z,1.17
2019-02-12T11:34:44.874Z,1.23
2019-02-12T11:36:18.919Z,1.25
2019-02-12T11:37:51.814Z,1.20
2019-02-12T11:39:25.868Z,1.30
2019-02-12T11:40:59.643Z,1.39
2019-02-12T11:42:33.991Z,1.48
2019-02-12T11:44:08.105Z,1.56
2019-02-12T11:45:41.893Z,1.63
2019-02-12T11:47:15.800Z,1.46
2019-02-12T11:48:49.709Z,1.46
2019-02-12T11:50:24.554Z,1.43
2019-02-12T11:51:59.816Z,1.30
2019-02-12T11:53:33.358Z,1.35
2019-02-12T11:55:07.085Z,1.39
2019-02-12T11:56:41.059Z,1.33
2019-02-12T11:58:13.918Z,1.30
2019-02-12T11:59:47.942Z,1.43
2019-02-12T12:01:24.814Z,1.53
2019-02-12T12:02:58.696Z,1.51
2019-02-12T12:04:32.698Z,1.62
2019-02-12T12:06:06.727Z,1.74
2019-02-12T12:07:40.737Z,1.71
2019-02-12T12:09:14.948Z,1.85
2019-02-12T12:10:48.900Z,1.89
2019-02-12T12:12:21.873Z,1.93
2019-02-12T12:13:55.705Z,1.85
2019-02-12T12:15:30.690Z,1.92
2019-02-12T12:17:04.596Z,1.82
2019-02-12T12:18:38.641Z,1.91
2019-02-12T12:20:12.554Z,2.02
2019-02-12T12:21:46.522Z,1.94
2019-02-12T12:23:20.369Z,1.97
2019-02-12T12:24:53.673Z,2.07
2019-02-12T12:26:26.530Z,1.96
2019-02-12T12:28:00.355Z,2.11
2019-02-12T12:29:33.326Z,2.08
2019-02-12T12:31:07.376Z,2.30
2019-02-12T12:32:40.446Z,2.22
2019-02-12T12:34:14.549Z,2.36
2019-02-12T12:35:48.494Z,2.47
2019-02-12T12:37:22.619Z,2.52
2019-02-12T12:38:56.396Z,2.59
2019-02-12T12:40:30.425Z,2.83
2019-02-12T12:42:04.139Z,2.98
2019-02-12T12:43:37.100Z,3.13
2019-02-12T12:45:11.099Z,3.18
2019-02-12T12:46:45.008Z,3.28
2019-02-12T12:48:18.693Z,3.23
2019-02-12T12:49:52.496Z,3.18
2019-02-12T12:51:26.075Z,3.38
2019-02-12T12:52:58.912Z,3.48
2019-02-12T12:54:31.637Z,3.56
2019-02-12T12:56:05.734Z,3.60
2019-02-12T12:57:41.962Z,3.85
2019-02-12T12:59:13.661Z,4.02
2019-02-12T13:00:46.685Z,4.09
2019-02-12T13:02:20.478Z,4.21
2019-02-12T13:03:54.433Z,4.29
2019-02-12T13:05:28.243Z,4.15
2019-02-12T13:07:01.920Z,3.94
2019-02-12T13:08:35.565Z,4.04
2019-02-12T13:10:08.594Z,4.08
2019-02-12T13:11:42.328Z,3.90
2019-02-12T13:13:17.015Z,3.94
2019-02-12T13:14:49.006Z,3.98
2019-02-12T13:16:22.680Z,3.91
2019-02-12T13:17:56.429Z,3.94
2019-02-12T13:19:30.416Z,4.00
2019-02-12T13:21:04.357Z,3.98
2019-02-12T13:22:38.291Z,4.05
2019-02-12T13:24:12.026Z,4.08
2019-02-12T13:25:45.894Z,3.75
2019-02-12T13:27:19.986Z,3.92
2019-02-12T13:28:52.809Z,3.91
2019-02-12T13:30:29.198Z,4.07
2019-02-12T13:32:03.162Z,3.96
2019-02-12T13:33:36.953Z,3.97
2019-02-12T13:35:09.873Z,4.11
2019-02-12T13:36:43.006Z,4.16
2019-02-12T13:38:17.058Z,4.30
2019-02-12T13:39:51.595Z,4.37
2019-02-12T13:41:25.526Z,4.43
2019-02-12T13:42:58.447Z,4.44
2019-02-12T13:44:33.051Z,4.57
2019-02-12T13:46:06.005Z,4.51
2019-02-12T13:47:38.933Z,4.62
2019-02-12T13:49:12.791Z,4.55
2019-02-12T13:50:46.708Z,4.37
2019-02-12T13:52:20.302Z,4.50
2019-02-12T13:53:53.306Z,4.56
2019-02-12T13:55:27.421Z,4.52
2019-02-12T13:57:01.192Z,4.52
2019-02-12T13:58:35.058Z,4.45
2019-02-12T14:00:08.904Z,4.42
2019-02-12T14:01:41.886Z,4.16
2019-02-12T14:03:22.036Z,4.04
2019-02-12T14:04:48.939Z,3.94
2019-02-12T14:06:22.679Z,3.83
2019-02-12T14:07:56.612Z,3.91
2019-02-12T14:09:30.399Z,3.84
2019-02-12T14:11:04.140Z,3.78
2019-02-12T14:12:37.826Z,3.72
2019-02-12T14:14:11.587Z,3.63
2019-02-12T14:15:44.636Z,3.65
2019-02-12T14:17:18.542Z,3.63
2019-02-12T14:18:52.333Z,3.55
2019-02-12T14:20:26.201Z,3.51
2019-02-12T14:22:00.144Z,3.45
2019-02-12T14:23:33.051Z,3.37
2019-02-12T14:25:06.074Z,3.39
2019-02-12T14:26:39.909Z,3.26
2019-02-12T14:28:12.863Z,3.26
2019-02-12T14:29:46.707Z,3.27
2019-02-12T14:31:20.354Z,3.23
2019-02-12T14:32:54.271Z,3.25
2019-02-12T14:34:29.166Z,3.25
2019-02-12T14:36:02.947Z,3.15
2019-02-12T14:37:35.840Z,3.13
2019-02-12T14:39:10.082Z,3.15
2019-02-12T14:40:44.056Z,3.08
2019-02-12T14:42:17.192Z,3.07
2019-02-12T14:43:50.967Z,3.11
2019-02-12T14:45:25.083Z,3.01
2019-02-12T14:46:59.179Z,3.06
2019-02-12T14:48:33.179Z,3.04
2019-02-12T14:50:06.065Z,2.99
2019-02-12T14:51:40.195Z,2.90
2019-02-12T14:53:13.995Z,2.91
2019-02-12T14:54:47.873Z,2.91
2019-02-12T14:56:20.670Z,2.91
2019-02-12T14:57:53.730Z,2.89
2019-02-12T14:59:27.866Z,2.82
2019-02-12T15:01:02.965Z,2.60
2019-02-12T15:02:36.594Z,2.64
2019-02-12T15:04:10.563Z,2.64
2019-02-12T15:05:44.877Z,2.64
2019-02-12T15:07:19.938Z,2.70
2019-02-12T15:08:53.106Z,2.71
2019-02-12T15:10:29.169Z,2.69
2019-02-12T15:12:02.949Z,2.64
2019-02-12T15:13:36.846Z,2.64
2019-02-12T15:15:10.682Z,2.61
2019-02-12T15:16:44.446Z,2.57
2019-02-12T15:18:18.246Z,2.44
2019-02-12T15:19:52.181Z,2.41
2019-02-12T15:21:25.872Z,2.38
2019-02-12T15:23:00.082Z,2.31
2019-02-12T15:24:33.778Z,2.23
2019-02-12T15:26:06.771Z,2.16
2019-02-12T15:27:41.685Z,2.12
2019-02-12T15:29:15.822Z,2.08
2019-02-12T15:30:49.906Z,2.00
2019-02-12T15:32:22.719Z,1.94
2019-02-12T15:33:56.657Z,1.88
2019-02-12T15:35:31.709Z,1.77
2019-02-12T15:37:04.591Z,1.74
2019-02-12T15:38:39.392Z,1.69
2019-02-12T15:40:12.442Z,1.63
2019-02-12T15:41:45.457Z,1.54
2019-02-12T15:43:18.359Z,1.52
2019-02-12T15:44:52.249Z,1.46
2019-02-12T15:46:26.445Z,1.40
2019-02-12T15:48:00.469Z,1.33
2019-02-12T15:49:34.270Z,1.29
2019-02-12T15:51:08.467Z,1.23
2019-02-12T15:52:42.686Z,1.17
2019-02-12T15:54:16.866Z,1.08
2019-02-12T15:55:51.571Z,1.03
2019-02-12T15:57:27.039Z,0.98
2019-02-12T15:58:58.869Z,0.90
2019-02-12T16:00:33.946Z,0.79
2019-02-12T16:02:07.125Z,0.76
2019-02-12T16:03:41.235Z,0.69
2019-02-12T16:05:15.298Z,0.69
2019-02-12T16:06:49.447Z,0.63
2019-02-12T16:08:23.554Z,0.60
2019-02-12T16:09:58.385Z,0.58
2019-02-12T16:11:32.253Z,0.46
2019-02-12T16:13:05.445Z,0.46
2019-02-12T16:14:40.185Z,0.42
2019-02-12T16:16:13.302Z,0.40
2019-02-12T16:17:47.278Z,0.38
2019-02-12T16:19:21.253Z,0.39
2019-02-12T16:20:55.284Z,0.40
2019-02-12T16:22:29.900Z,0.38
2019-02-12T16:24:04.528Z,0.32
2019-02-12T16:25:38.405Z,0.34
2019-02-12T16:27:12.211Z,0.28
2019-02-12T16:28:46.025Z,0.28
2019-02-12T16:30:20.928Z,0.32
2019-02-12T16:31:54.957Z,0.24
2019-02-12T16:33:29.778Z,0.24
2019-02-12T16:35:03.682Z,0.28
2019-02-12T16:36:37.717Z,0.30
2019-02-12T16:38:11.791Z,0.24
2019-02-12T16:39:46.850Z,0.24
2019-02-12T16:41:21.747Z,0.23
2019-02-12T16:42:55.847Z,0.23
2019-02-12T16:44:29.897Z,0.21
2019-02-12T16:46:11.145Z,0.18
2019-02-12T16:47:46.129Z,0.18
2019-02-12T16:49:21.987Z,0.13
2019-02-12T16:50:56.226Z,0.05
2019-02-12T16:52:30.137Z,0.09
2019-02-12T16:54:04.233Z,0.04
2019-02-12T16:55:38.351Z,0.06
2019-02-12T16:57:12.299Z,0.08
2019-02-12T16:58:46.463Z,0.14
2019-02-12T17:00:23.446Z,0.12
2019-02-12T17:01:57.652Z,0.04
2019-02-12T17:03:31.899Z,0.04
2019-02-12T17:05:06.153Z,0.05
2019-02-12T17:06:40.009Z,0.08
2019-02-12T17:08:14.171Z,0.14
2019-02-12T17:09:52.290Z,0.13
2019-02-12T17:11:21.252Z,0.13
2019-02-12T17:12:55.387Z,0.12
2019-02-12T17:14:29.612Z,0.16
2019-02-12T17:16:03.791Z,0.20
2019-02-12T17:17:39.626Z,0.19
2019-02-12T17:19:15.318Z,0.18
2019-02-12T17:20:49.482Z,0.21
2019-02-12T17:22:24.290Z,0.21
2019-02-12T17:23:58.204Z,0.34
2019-02-12T17:25:34.031Z,0.31
2019-02-12T17:27:07.957Z,0.32
2019-02-12T17:28:42.105Z,0.29
2019-02-12T17:30:16.478Z,0.32
2019-02-12T17:31:51.217Z,0.41
2019-02-12T17:33:25.259Z,0.42
2019-02-12T17:35:01.374Z,0.45
2019-02-12T17:36:34.035Z,0.42
2019-02-12T17:38:07.703Z,0.45
2019-02-12T17:39:41.479Z,0.39
2019-02-12T17:41:15.443Z,0.39
2019-02-12T17:42:49.338Z,0.41
2019-02-12T17:44:23.149Z,0.44
2019-02-12T17:45:57.124Z,0.39
2019-02-12T17:47:31.045Z,0.41
2019-02-12T17:49:05.251Z,0.36
2019-02-12T17:50:39.178Z,0.37
2019-02-12T17:52:13.969Z,0.34
2019-02-12T17:53:47.776Z,0.33
2019-02-12T17:55:22.656Z,0.37
2019-02-12T17:56:56.711Z,0.38
2019-02-12T17:58:31.642Z,0.36
2019-02-12T18:00:05.943Z,0.30
2019-02-12T18:01:40.957Z,0.36
2019-02-12T18:03:14.979Z,0.33
2019-02-12T18:04:48.643Z,0.38
2019-02-12T18:06:22.529Z,0.35
2019-02-12T18:07:56.603Z,0.38
2019-02-12T18:09:30.896Z,0.36
2019-02-12T18:11:04.671Z,0.39
2019-02-12T18:12:38.697Z,0.39
2019-02-12T18:14:12.886Z,0.41
2019-02-12T18:15:46.814Z,0.45
2019-02-12T18:17:21.039Z,0.48
2019-02-12T18:18:55.229Z,0.44
2019-02-12T18:20:29.540Z,0.45
2019-02-12T18:22:03.854Z,0.48
2019-02-12T18:23:38.352Z,0.51
2019-02-12T18:25:12.484Z,0.56
2019-02-12T18:26:46.536Z,0.59
2019-02-12T18:28:21.370Z,0.61
2019-02-12T18:29:54.959Z,0.65
2019-02-12T18:31:29.015Z,0.66
2019-02-12T18:33:03.023Z,0.63
2019-02-12T18:34:37.977Z,0.68
2019-02-12T18:36:12.149Z,0.70
2019-02-12T18:37:46.562Z,0.70
2019-02-12T18:39:22.322Z,0.69
2019-02-12T18:40:56.619Z,0.67
2019-02-12T18:42:30.367Z,0.67
2019-02-12T18:44:03.380Z,0.66
2019-02-12T18:45:38.449Z,0.64
2019-02-12T18:47:12.262Z,0.66
2019-02-12T18:48:45.091Z,0.73
2019-02-12T18:50:19.052Z,0.67
2019-02-12T18:51:52.892Z,0.69
2019-02-12T18:53:26.627Z,0.72
2019-02-12T18:55:00.662Z,0.72
2019-02-12T18:56:41.520Z,0.69
2019-02-12T18:58:08.493Z,0.67
2019-02-12T18:59:42.477Z,0.77
2019-02-12T19:01:16.243Z,0.77
2019-02-12T19:02:50.175Z,0.82
2019-02-12T19:04:23.924Z,0.83
2019-02-12T19:05:57.839Z,0.82
2019-02-12T19:07:32.716Z,0.83
2019-02-12T19:09:06.863Z,0.80
2019-02-12T19:10:40.866Z,0.83
2019-02-12T19:12:15.791Z,0.80
2019-02-12T19:13:50.442Z,0.86
2019-02-12T19:15:25.555Z,0.83
2019-02-12T19:16:59.212Z,0.84
2019-02-12T19:18:38.354Z,0.87
2019-02-12T19:20:12.197Z,0.92
2019-02-12T19:21:45.040Z,0.89
2019-02-12T19:23:19.146Z,0.93
2019-02-12T19:24:51.938Z,0.93
2019-02-12T19:26:25.820Z,0.94
2019-02-12T19:27:59.722Z,0.99
2019-02-12T19:29:32.614Z,0.96
2019-02-12T19:31:05.973Z,0.97
2019-02-12T19:32:40.058Z,0.96
2019-02-12T19:34:14.020Z,0.94
2019-02-12T19:35:47.755Z,0.94
2019-02-12T19:37:21.719Z,0.93
2019-02-12T19:38:55.840Z,0.95
2019-02-12T19:40:30.794Z,0.94
2019-02-12T19:42:06.345Z,0.87
2019-02-12T19:43:40.400Z,0.85
2019-02-12T19:45:14.354Z,0.83
2019-02-12T19:46:48.706Z,0.83
2019-02-12T19:48:23.441Z,0.82
2019-02-12T19:49:57.319Z,0.75
2019-02-12T19:51:32.155Z,0.71
2019-02-12T19:53:07.066Z,0.73
2019-02-12T19:54:42.202Z,0.68
2019-02-12T19:56:16.962Z,0.71
2019-02-12T19:57:51.968Z,0.73
2019-02-12T19:59:26.588Z,0.73
2019-02-12T20:01:01.555Z,0.58
2019-02-12T20:02:35.371Z,0.60
2019-02-12T20:04:09.387Z,0.58
2019-02-12T20:05:43.626Z,0.58
2019-02-12T20:07:17.503Z,0.59
2019-02-12T20:08:52.763Z,0.64
2019-02-12T20:10:27.560Z,0.69
2019-02-12T20:12:03.643Z,0.69
2019-02-12T20:13:38.674Z,0.76
2019-02-12T20:15:13.398Z,0.81
2019-02-12T20:16:47.329Z,0.83
2019-02-12T20:18:22.140Z,0.86
2019-02-12T20:19:55.105Z,0.90
2019-02-12T20:21:28.803Z,0.87
2019-02-12T20:23:02.624Z,0.84
2019-02-12T20:24:36.229Z,0.86
2019-02-12T20:26:11.216Z,0.87
2019-02-12T20:27:47.060Z,0.83
2019-02-12T20:29:21.173Z,0.81
2019-02-12T20:30:54.973Z,0.83
2019-02-12T20:32:29.090Z,0.77
2019-02-12T20:34:04.039Z,0.69
2019-02-12T20:35:38.010Z,0.64
2019-02-12T20:37:12.320Z,0.70
2019-02-12T20:38:47.474Z,0.74
2019-02-12T20:40:23.188Z,0.75
2019-02-12T20:41:57.303Z,0.79
2019-02-12T20:43:31.821Z,0.81
2019-02-12T20:45:06.139Z,0.84
2019-02-12T20:46:40.547Z,0.87
2019-02-12T20:48:13.593Z,0.89
2019-02-12T20:49:47.714Z,0.89
2019-02-12T20:51:21.630Z,0.87
2019-02-12T20:52:55.674Z,0.81
2019-02-12T20:54:29.546Z,0.83
2019-02-12T20:56:03.766Z,0.86
2019-02-12T20:57:37.501Z,0.84
2019-02-12T20:59:11.353Z,0.87
2019-02-12T21:00:45.359Z,0.90
2019-02-12T21:02:21.192Z,0.88
2019-02-12T21:03:55.211Z,0.86
2019-02-12T21:05:31.141Z,0.88
2019-02-12T21:07:05.072Z,0.92
2019-02-12T21:08:39.058Z,0.84
2019-02-12T21:10:12.858Z,0.88
2019-02-12T21:11:46.969Z,0.87
2019-02-12T21:13:21.987Z,0.86
2019-02-12T21:14:54.883Z,0.88
2019-02-12T21:16:28.172Z,0.84
2019-02-12T21:18:02.995Z,0.89
2019-02-12T21:19:36.884Z,0.90
2019-02-12T21:21:11.002Z,0.93
2019-02-12T21:22:44.998Z,0.92
2019-02-12T21:24:18.912Z,0.91
2019-02-12T21:25:54.050Z,0.94
2019-02-12T21:27:26.749Z,0.96
2019-02-12T21:28:59.784Z,0.98
2019-02-12T21:30:36.978Z,0.97
2019-02-12T21:32:11.063Z,0.96
2019-02-12T21:33:45.191Z,0.92
2019-02-12T21:35:21.027Z,0.90
2019-02-12T21:36:55.270Z,0.86
2019-02-12T21:38:30.078Z,0.86
2019-02-12T21:40:04.999Z,0.87
2019-02-12T21:41:39.011Z,0.86
2019-02-12T21:43:14.233Z,0.86
2019-02-12T21:44:50.094Z,0.83
2019-02-12T21:46:23.710Z,0.86
2019-02-12T21:47:57.565Z,0.84
2019-02-12T21:49:31.491Z,0.91
2019-02-12T21:51:05.602Z,0.88
2019-02-12T21:52:39.808Z,0.86
2019-02-12T21:54:13.909Z,0.87
2019-02-12T21:55:48.018Z,0.83
2019-02-12T21:57:22.068Z,0.83
2019-02-12T21:58:55.894Z,0.86
2019-02-12T22:00:32.004Z,0.86
2019-02-12T22:02:06.127Z,0.87
2019-02-12T22:03:39.812Z,0.89
2019-02-12T22:05:13.990Z,0.89
2019-02-12T22:06:48.605Z,0.84
2019-02-12T22:08:21.336Z,0.81
2019-02-12T22:09:55.063Z,0.74
2019-02-12T22:11:28.878Z,0.75
2019-02-12T22:13:01.865Z,0.76
2019-02-12T22:14:36.155Z,0.77
2019-02-12T22:16:10.418Z,0.82
2019-02-12T22:17:44.573Z,0.83
2019-02-12T22:19:18.419Z,0.82
2019-02-12T22:20:52.476Z,0.81
2019-02-12T22:22:26.276Z,0.79
2019-02-12T22:24:00.100Z,0.74
2019-02-12T22:25:33.704Z,0.75
2019-02-12T22:27:06.390Z,0.72
2019-02-12T22:28:39.433Z,0.75
2019-02-12T22:30:13.206Z,0.71
2019-02-12T22:31:47.158Z,0.74
2019-02-12T22:33:21.342Z,0.73
2019-02-12T22:34:54.457Z,0.75
2019-02-12T22:36:28.334Z,0.74
2019-02-12T22:38:02.331Z,0.77
2019-02-12T22:39:36.257Z,0.77
2019-02-12T22:41:10.264Z,0.78
2019-02-12T22:42:45.168Z,0.81
2019-02-12T22:44:18.937Z,0.84
2019-02-12T22:45:53.090Z,0.83
2019-02-12T22:47:27.386Z,0.83
2019-02-12T22:49:01.189Z,0.93
2019-02-12T22:50:35.294Z,0.94
2019-02-12T22:52:09.214Z,0.95
2019-02-12T22:53:43.323Z,0.95
2019-02-12T22:55:17.429Z,0.95
2019-02-12T22:56:52.291Z,0.92
2019-02-12T22:58:26.073Z,0.95
2019-02-12T23:00:00.251Z,0.93
2019-02-12T23:01:40.171Z,0.91
2019-02-12T23:03:14.636Z,0.96
2019-02-12T23:04:48.525Z,0.91
2019-02-12T23:06:22.809Z,0.90
2019-02-12T23:07:57.377Z,0.91
2019-02-12T23:09:32.363Z,0.89
2019-02-12T23:11:06.324Z,0.81
2019-02-12T23:12:40.350Z,0.88
2019-02-12T23:14:14.275Z,0.84
2019-02-12T23:15:48.505Z,0.87
2019-02-12T23:17:22.259Z,0.83
2019-02-12T23:18:56.480Z,0.87
2019-02-12T23:20:29.422Z,0.88
2019-02-12T23:22:03.408Z,0.91
2019-02-12T23:23:36.468Z,0.93
2019-02-12T23:25:10.156Z,0.92
2019-02-12T23:26:43.143Z,0.97
2019-02-12T23:28:16.215Z,0.94
2019-02-12T23:29:50.006Z,1.00
2019-02-12T23:31:23.916Z,1.01
2019-02-12T23:32:56.756Z,1.02
2019-02-12T23:34:30.607Z,1.07
2019-02-12T23:36:04.521Z,1.02
2019-02-12T23:37:37.183Z,1.04
2019-02-12T23:39:11.248Z,1.06
2019-02-12T23:40:45.190Z,1.05
2019-02-12T23:42:17.932Z,1.02
2019-02-12T23:43:50.757Z,1.09
2019-02-12T23:45:24.626Z,1.07
2019-02-12T23:46:58.448Z,1.01
2019-02-12T23:48:32.288Z,1.01
2019-02-12T23:50:05.225Z,1.03
2019-02-12T23:51:39.012Z,1.03
2019-02-12T23:53:12.822Z,1.05
2019-02-12T23:54:46.561Z,1.05
2019-02-12T23:56:20.438Z,1.07
2019-02-12T23:57:54.438Z,1.04
2019-02-12T23:59:28.221Z,1.07
